Genoa Township, Michigan
Current Conditions -  °F | °C
As of 5:55 AM on Sunday 21 Dec 2014 (Local Time) from KOZW Reporting Station
Overcast Overcast  
Wind Chill: 27°   Ceiling: 2700
Heat Index: 27°   Visibility: 7mi
Dew Point: 24°   Wind: 3mph
Humidity: 90%   Direction: 180°S
Pressure: 30.27"   Gusts: NA
Location:  42.5333°N, 83.7735°W
Report Text: KOZW 211055Z AUTO 18003KT 7SM OVC027 M03/M04 A3027 RMK AO2 T10291044
Loading
Personal Weather Stations






























Interactive Weather Map New forecast layout! Learn more

10-Day Weather Forecast

Advertisements
Track Severe Weather on mobile